Time;durP1;ratioP1;P1;durP2;ratioP2;P2;SDS_P1;SDS_P2;PMS_P1;PMS_P2;Temp;Humidity;BMP_temperature;BMP_pressure;BME280_temperature;BME280_humidity;BME280_pressure;Samples;Min_cycle;Max_cycle;Signal;HPM_P1;HPM_P2
2024/01/02 00:00:15;;;;;;;13.80;5.20;;;;;;;;;;5073860;28;20206;-48
2024/01/02 00:02:41;;;;;;;16.23;4.90;;;;;;;;;;5073366;28;20226;-48
2024/01/02 00:05:08;;;;;;;16.80;5.63;;;;;;;;;;5072778;28;20477;-49
2024/01/02 00:07:34;;;;;;;16.80;4.90;;;;;;;;;;5057872;28;20445;-49
2024/01/02 00:10:00;;;;;;;14.47;4.73;;;;;;;;;;5059605;28;20458;-48
2024/01/02 00:12:26;;;;;;;16.87;5.93;;;;;;;;;;5053553;28;20442;-48
2024/01/02 00:14:52;;;;;;;16.37;5.33;;;;;;;;;;5050940;28;20810;-48
2024/01/02 00:17:20;;;;;;;19.53;5.10;;;;;;;;;;5052933;28;20228;-49
2024/01/02 00:19:46;;;;;;;15.97;4.83;;;;;;;;;;5053188;28;20451;-49
2024/01/02 00:22:12;;;;;;;17.93;4.93;;;;;;;;;;5049913;28;20450;-50
2024/01/02 00:24:38;;;;;;;11.17;5.13;;;;;;;;;;5071715;28;20246;-49
2024/01/02 00:27:04;;;;;;;13.50;4.93;;;;;;;;;;5073305;28;20942;-49
2024/01/02 00:29:30;;;;;;;12.50;4.23;;;;;;;;;;5059631;28;20526;-49
2024/01/02 00:31:56;;;;;;;10.60;4.13;;;;;;;;;;5052974;28;20521;-49
2024/01/02 00:34:25;;;;;;;12.90;4.20;;;;;;;;;;5065778;28;20602;-49
2024/01/02 00:36:51;;;;;;;15.53;4.53;;;;;;;;;;5045611;28;20196;-50
2024/01/02 00:39:17;;;;;;;10.97;3.90;;;;;;;;;;5052151;28;20500;-47
2024/01/02 00:41:43;;;;;;;13.87;3.90;;;;;;;;;;5052720;28;20283;-47
2024/01/02 00:44:09;;;;;;;15.57;4.00;;;;;;;;;;5052998;28;20238;-48
2024/01/02 00:46:35;;;;;;;13.73;3.57;;;;;;;;;;5063905;28;20999;-49
2024/01/02 00:49:01;;;;;;;14.40;4.73;;;;;;;;;;5072803;28;20196;-48
2024/01/02 00:51:28;;;;;;;13.73;4.47;;;;;;;;;;5072807;28;20719;-48
2024/01/02 00:53:54;;;;;;;10.73;4.10;;;;;;;;;;5072686;28;20281;-49
2024/01/02 00:56:20;;;;;;;10.47;3.27;;;;;;;;;;5065844;28;20462;-49
2024/01/02 00:58:46;;;;;;;18.67;4.13;;;;;;;;;;5052788;28;20485;-48
2024/01/02 01:01:12;;;;;;;12.40;3.83;;;;;;;;;;5052863;28;20450;-48
2024/01/02 01:03:38;;;;;;;13.33;3.97;;;;;;;;;;5060946;28;20650;-49
2024/01/02 01:06:05;;;;;;;14.03;4.47;;;;;;;;;;5072578;28;20238;-49
2024/01/02 01:08:32;;;;;;;16.57;3.87;;;;;;;;;;5071193;28;20493;-49
2024/01/02 01:10:58;;;;;;;11.53;3.97;;;;;;;;;;5072484;28;20454;-49
2024/01/02 01:13:25;;;;;;;12.43;3.63;;;;;;;;;;5065174;28;20521;-48
2024/01/02 01:15:51;;;;;;;15.13;3.93;;;;;;;;;;5071970;28;20206;-48
2024/01/02 01:18:17;;;;;;;16.57;4.00;;;;;;;;;;5072102;28;20462;-48
2024/01/02 01:20:43;;;;;;;11.77;4.03;;;;;;;;;;5072366;28;20206;-48
2024/01/02 01:23:09;;;;;;;15.00;4.40;;;;;;;;;;5072107;28;20272;-48
2024/01/02 01:25:36;;;;;;;18.27;4.47;;;;;;;;;;5072100;28;20983;-49
2024/01/02 01:28:03;;;;;;;13.30;3.53;;;;;;;;;;5072266;28;20214;-46
2024/01/02 01:30:29;;;;;;;13.37;4.23;;;;;;;;;;5072074;28;20441;-48
2024/01/02 01:32:55;;;;;;;11.57;3.60;;;;;;;;;;5072185;28;20997;-48
2024/01/02 01:35:21;;;;;;;8.57;3.47;;;;;;;;;;5072249;28;20204;-49
2024/01/02 01:37:47;;;;;;;15.50;4.23;;;;;;;;;;5071847;28;20450;-46
2024/01/02 01:40:13;;;;;;;7.70;3.60;;;;;;;;;;5072191;28;20204;-47
2024/01/02 01:42:40;;;;;;;11.93;3.17;;;;;;;;;;5071730;28;20214;-49
2024/01/02 01:45:06;;;;;;;10.53;3.67;;;;;;;;;;5071892;28;20242;-49
2024/01/02 01:47:33;;;;;;;11.40;3.53;;;;;;;;;;5071620;28;20550;-49
2024/01/02 01:49:59;;;;;;;11.30;3.17;;;;;;;;;;5072180;28;20441;-49
2024/01/02 01:52:25;;;;;;;13.47;3.70;;;;;;;;;;5071826;28;20499;-50
2024/01/02 01:54:51;;;;;;;10.07;3.17;;;;;;;;;;5071926;28;20190;-49
2024/01/02 01:57:17;;;;;;;13.23;3.43;;;;;;;;;;5072001;28;20503;-49
2024/01/02 01:59:45;;;;;;;11.17;3.10;;;;;;;;;;5071128;28;20438;-49
2024/01/02 02:02:11;;;;;;;14.80;3.87;;;;;;;;;;5071952;28;20438;-49
2024/01/02 02:04:40;;;;;;;13.13;3.23;;;;;;;;;;5071681;28;20527;-49
2024/01/02 02:07:06;;;;;;;13.90;3.37;;;;;;;;;;5071916;28;20441;-49
2024/01/02 02:09:32;;;;;;;9.33;2.77;;;;;;;;;;5068083;28;20442;-49
2024/01/02 02:11:59;;;;;;;8.90;3.27;;;;;;;;;;5071860;28;20830;-50
2024/01/02 02:14:25;;;;;;;11.40;3.30;;;;;;;;;;5071938;28;20196;-49
2024/01/02 02:16:53;;;;;;;12.50;3.20;;;;;;;;;;5071205;28;20465;-50
2024/01/02 02:19:19;;;;;;;9.87;3.00;;;;;;;;;;5069933;28;20816;-50
2024/01/02 02:21:47;;;;;;;11.87;3.37;;;;;;;;;;5071530;28;20418;-50
2024/01/02 02:24:14;;;;;;;11.67;3.10;;;;;;;;;;5071764;28;20263;-50
2024/01/02 02:26:40;;;;;;;13.40;4.07;;;;;;;;;;5066115;28;20807;-49
2024/01/02 02:29:06;;;;;;;14.03;3.07;;;;;;;;;;5062504;28;20425;-49
2024/01/02 02:31:32;;;;;;;7.43;2.73;;;;;;;;;;5051364;28;20214;-50
2024/01/02 02:33:58;;;;;;;11.07;3.00;;;;;;;;;;5049720;28;20617;-49
2024/01/02 02:36:24;;;;;;;8.63;2.67;;;;;;;;;;5042855;28;20849;-49
2024/01/02 02:38:50;;;;;;;12.20;3.17;;;;;;;;;;5060795;28;20442;-49
2024/01/02 02:41:18;;;;;;;9.50;2.87;;;;;;;;;;5066239;28;20196;-49
2024/01/02 02:43:44;;;;;;;9.57;3.37;;;;;;;;;;5066038;28;20210;-49
2024/01/02 02:46:10;;;;;;;10.70;3.40;;;;;;;;;;5069569;28;20442;-49
2024/01/02 02:48:36;;;;;;;12.03;2.70;;;;;;;;;;5069519;28;20855;-49
2024/01/02 02:51:02;;;;;;;9.70;2.90;;;;;;;;;;5066185;28;20195;-49
2024/01/02 02:53:28;;;;;;;12.47;2.77;;;;;;;;;;5071312;28;20663;-50
2024/01/02 02:55:54;;;;;;;16.60;3.63;;;;;;;;;;5071216;28;20227;-49
2024/01/02 02:58:21;;;;;;;10.53;3.00;;;;;;;;;;5071628;28;20202;-50
2024/01/02 03:00:47;;;;;;;10.27;3.13;;;;;;;;;;5069923;28;20446;-50
2024/01/02 03:03:14;;;;;;;15.10;3.07;;;;;;;;;;5071433;28;20444;-50
2024/01/02 03:05:40;;;;;;;10.30;2.50;;;;;;;;;;5071219;28;20251;-50
2024/01/02 03:08:06;;;;;;;11.80;3.10;;;;;;;;;;5071218;28;20453;-50
2024/01/02 03:10:32;;;;;;;11.57;2.83;;;;;;;;;;5073300;28;20242;-50
2024/01/02 03:12:58;;;;;;;7.63;2.70;;;;;;;;;;5074975;28;20465;-50
2024/01/02 03:15:25;;;;;;;9.00;2.90;;;;;;;;;;5074961;28;20214;-50
2024/01/02 03:17:51;;;;;;;9.57;2.50;;;;;;;;;;5074630;28;20231;-50
2024/01/02 03:20:17;;;;;;;11.83;3.00;;;;;;;;;;5074893;28;20692;-50
2024/01/02 03:22:43;;;;;;;9.10;2.57;;;;;;;;;;5074644;28;20212;-49
2024/01/02 03:25:10;;;;;;;8.77;2.60;;;;;;;;;;5074784;28;20250;-50
2024/01/02 03:27:36;;;;;;;8.37;2.90;;;;;;;;;;5074666;28;20207;-50
2024/01/02 03:30:03;;;;;;;8.87;2.17;;;;;;;;;;5074655;28;20498;-49
2024/01/02 03:32:31;;;;;;;13.00;2.50;;;;;;;;;;5074803;28;20274;-50
2024/01/02 03:34:57;;;;;;;8.83;2.80;;;;;;;;;;5074406;28;20865;-49
2024/01/02 03:37:23;;;;;;;11.83;2.77;;;;;;;;;;5074431;28;20469;-50
2024/01/02 03:39:49;;;;;;;8.17;2.40;;;;;;;;;;5074327;28;20211;-49
2024/01/02 03:42:15;;;;;;;9.17;2.47;;;;;;;;;;5074383;28;20571;-50
2024/01/02 03:44:41;;;;;;;9.73;2.80;;;;;;;;;;5074177;28;20211;-48
2024/01/02 03:47:06;;;;;;;11.37;3.33;;;;;;;;;;5074200;28;20228;-48
2024/01/02 03:49:34;;;;;;;7.40;2.27;;;;;;;;;;5074359;28;20677;-48
2024/01/02 03:52:00;;;;;;;9.73;2.60;;;;;;;;;;5074247;28;20219;-48
2024/01/02 03:54:26;;;;;;;8.33;2.40;;;;;;;;;;5074244;28;20611;-48
2024/01/02 03:56:52;;;;;;;8.10;2.57;;;;;;;;;;5073960;28;20207;-47
2024/01/02 03:59:18;;;;;;;5.50;2.03;;;;;;;;;;5074218;28;20249;-48
2024/01/02 04:01:44;;;;;;;8.27;3.00;;;;;;;;;;5074242;28;20199;-49
2024/01/02 04:04:10;;;;;;;10.70;2.87;;;;;;;;;;5074022;28;20241;-49
2024/01/02 04:06:37;;;;;;;7.50;2.37;;;;;;;;;;5074082;28;20199;-49
2024/01/02 04:09:03;;;;;;;8.10;2.70;;;;;;;;;;5073989;28;20207;-48
2024/01/02 04:11:29;;;;;;;7.87;2.60;;;;;;;;;;5072846;28;20458;-48
2024/01/02 04:13:55;;;;;;;9.23;2.40;;;;;;;;;;5073719;28;20465;-48
2024/01/02 04:16:21;;;;;;;9.13;2.50;;;;;;;;;;5073892;28;20669;-48
2024/01/02 04:18:50;;;;;;;8.43;2.83;;;;;;;;;;5073751;28;20195;-48
2024/01/02 04:21:16;;;;;;;10.10;2.47;;;;;;;;;;5073105;28;20203;-48
2024/01/02 04:23:43;;;;;;;6.43;2.37;;;;;;;;;;5073541;28;20218;-48
2024/01/02 04:26:09;;;;;;;9.00;2.67;;;;;;;;;;5073609;28;20568;-49
2024/01/02 04:28:35;;;;;;;6.43;2.70;;;;;;;;;;5073584;28;20433;-48
2024/01/02 04:31:01;;;;;;;11.53;2.87;;;;;;;;;;5073532;28;20199;-48
2024/01/02 04:33:27;;;;;;;8.77;2.40;;;;;;;;;;5073512;28;20221;-48
2024/01/02 04:35:53;;;;;;;7.67;2.70;;;;;;;;;;5073326;28;20440;-48
2024/01/02 04:38:19;;;;;;;9.13;2.37;;;;;;;;;;5073345;28;20253;-48
2024/01/02 04:40:47;;;;;;;7.47;2.10;;;;;;;;;;5073304;28;20684;-48
2024/01/02 04:43:13;;;;;;;6.77;2.57;;;;;;;;;;5073262;28;20196;-48
2024/01/02 04:45:39;;;;;;;8.47;2.60;;;;;;;;;;5073120;28;20477;-48
2024/01/02 04:48:05;;;;;;;8.67;2.40;;;;;;;;;;5073052;28;20232;-48
2024/01/02 04:50:31;;;;;;;7.97;2.70;;;;;;;;;;5062848;28;20215;-48
2024/01/02 04:52:57;;;;;;;6.80;2.43;;;;;;;;;;5058833;28;20570;-48
2024/01/02 04:55:23;;;;;;;9.47;2.50;;;;;;;;;;5060865;28;20270;-47
2024/01/02 04:57:50;;;;;;;8.17;2.33;;;;;;;;;;5060287;28;20200;-48
2024/01/02 05:00:16;;;;;;;8.73;2.93;;;;;;;;;;5060691;28;20203;-48
2024/01/02 05:02:42;;;;;;;9.07;2.40;;;;;;;;;;5060842;28;20475;-48
2024/01/02 05:05:08;;;;;;;10.47;3.43;;;;;;;;;;5060486;28;20478;-48
2024/01/02 05:07:34;;;;;;;5.90;2.00;;;;;;;;;;5058639;28;20598;-48
2024/01/02 05:10:00;;;;;;;4.27;2.07;;;;;;;;;;5060146;28;20814;-48
2024/01/02 05:12:27;;;;;;;7.97;2.30;;;;;;;;;;5058552;28;20199;-48
2024/01/02 05:14:55;;;;;;;8.50;2.47;;;;;;;;;;5061526;28;20434;-48
2024/01/02 05:17:20;;;;;;;6.67;2.43;;;;;;;;;;5060302;28;20461;-48
2024/01/02 05:19:46;;;;;;;5.93;2.10;;;;;;;;;;5060216;28;20452;-48
2024/01/02 05:22:12;;;;;;;4.83;2.00;;;;;;;;;;5060170;28;20248;-48
2024/01/02 05:24:38;;;;;;;8.20;2.37;;;;;;;;;;5063574;28;20235;-47
2024/01/02 05:27:04;;;;;;;6.60;2.20;;;;;;;;;;5058529;28;20677;-48
2024/01/02 05:29:30;;;;;;;5.10;2.20;;;;;;;;;;5060676;28;20835;-48
2024/01/02 05:31:58;;;;;;;6.10;2.43;;;;;;;;;;5061838;28;20222;-48
2024/01/02 05:34:26;;;;;;;8.43;3.03;;;;;;;;;;5061889;28;20495;-48
2024/01/02 05:36:52;;;;;;;7.17;2.50;;;;;;;;;;5059966;28;21047;-48
2024/01/02 05:39:18;;;;;;;5.27;2.50;;;;;;;;;;5059714;28;20287;-48
2024/01/02 05:41:44;;;;;;;6.37;2.47;;;;;;;;;;5061360;28;20196;-48
2024/01/02 05:44:10;;;;;;;10.57;3.00;;;;;;;;;;5059899;28;20223;-48
2024/01/02 05:46:36;;;;;;;9.50;3.00;;;;;;;;;;5059799;28;20993;-48
2024/01/02 05:49:03;;;;;;;6.67;2.60;;;;;;;;;;5059714;28;20200;-48
2024/01/02 05:51:29;;;;;;;7.53;2.20;;;;;;;;;;5060006;28;20217;-48
2024/01/02 05:53:55;;;;;;;8.67;2.97;;;;;;;;;;5061249;28;20928;-47
2024/01/02 05:56:21;;;;;;;5.03;2.40;;;;;;;;;;5061635;28;20195;-48
2024/01/02 05:58:47;;;;;;;5.07;2.63;;;;;;;;;;5061592;28;20199;-48
2024/01/02 06:01:13;;;;;;;5.13;2.53;;;;;;;;;;5061058;28;20444;-48
2024/01/02 06:03:39;;;;;;;8.13;2.83;;;;;;;;;;5060767;28;20191;-48
2024/01/02 06:06:07;;;;;;;7.03;2.70;;;;;;;;;;5057777;28;20625;-48
2024/01/02 06:08:33;;;;;;;8.63;2.93;;;;;;;;;;5059257;28;20203;-48
2024/01/02 06:10:59;;;;;;;5.33;2.77;;;;;;;;;;5059726;28;20521;-47
2024/01/02 06:13:25;;;;;;;7.30;2.80;;;;;;;;;;5061511;28;20457;-47
2024/01/02 06:15:51;;;;;;;8.67;3.17;;;;;;;;;;5059394;28;20282;-48
2024/01/02 06:18:17;;;;;;;7.30;2.83;;;;;;;;;;5059545;28;20754;-48
2024/01/02 06:20:43;;;;;;;6.23;2.63;;;;;;;;;;5059393;28;20191;-48
2024/01/02 06:23:10;;;;;;;4.17;2.40;;;;;;;;;;5058955;28;20540;-47
2024/01/02 06:25:36;;;;;;;4.27;2.60;;;;;;;;;;5059186;28;20318;-47
2024/01/02 06:28:02;;;;;;;6.33;2.70;;;;;;;;;;5060995;28;20282;-48
2024/01/02 06:30:28;;;;;;;3.83;2.30;;;;;;;;;;5057555;28;20200;-47
2024/01/02 06:32:54;;;;;;;9.07;2.67;;;;;;;;;;5057203;28;20717;-47
2024/01/02 06:35:20;;;;;;;4.77;2.10;;;;;;;;;;5057754;28;20704;-47
2024/01/02 06:37:46;;;;;;;4.03;2.20;;;;;;;;;;5071467;28;20977;-48
2024/01/02 06:40:14;;;;;;;3.10;2.40;;;;;;;;;;5071613;28;20437;-48
2024/01/02 06:42:40;;;;;;;3.10;2.20;;;;;;;;;;5071591;28;20206;-47
2024/01/02 06:45:07;;;;;;;4.47;2.47;;;;;;;;;;5072651;28;20854;-47
2024/01/02 06:47:33;;;;;;;7.37;2.50;;;;;;;;;;5064677;28;20231;-48
2024/01/02 06:49:59;;;;;;;2.93;2.00;;;;;;;;;;5061440;28;20440;-47
2024/01/02 06:52:25;;;;;;;5.40;1.97;;;;;;;;;;5064919;28;20604;-48
2024/01/02 06:54:51;;;;;;;4.13;1.90;;;;;;;;;;5061456;28;20188;-47
2024/01/02 06:57:18;;;;;;;1.83;1.70;;;;;;;;;;5061383;28;20214;-47
2024/01/02 06:59:45;;;;;;;5.63;2.00;;;;;;;;;;5063197;28;20196;-47
2024/01/02 07:02:11;;;;;;;5.10;2.00;;;;;;;;;;5061078;28;20458;-47
2024/01/02 07:04:38;;;;;;;4.33;2.10;;;;;;;;;;5062833;28;20933;-47
2024/01/02 07:07:04;;;;;;;3.43;1.90;;;;;;;;;;5062668;28;20667;-49
2024/01/02 07:09:30;;;;;;;5.10;2.03;;;;;;;;;;5060962;28;20811;-48
2024/01/02 07:11:56;;;;;;;4.27;2.13;;;;;;;;;;5062692;28;20191;-48
2024/01/02 07:14:23;;;;;;;1.80;1.50;;;;;;;;;;5060813;28;20248;-48
2024/01/02 07:16:50;;;;;;;6.93;2.03;;;;;;;;;;5062299;28;20578;-47
2024/01/02 07:19:15;;;;;;;5.40;1.97;;;;;;;;;;5062766;28;20214;-46
2024/01/02 07:21:41;;;;;;;2.03;1.50;;;;;;;;;;5060818;28;20547;-46
2024/01/02 07:24:08;;;;;;;3.57;1.80;;;;;;;;;;5064334;28;20790;-46
2024/01/02 07:26:33;;;;;;;3.03;1.47;;;;;;;;;;5060656;28;20203;-47
2024/01/02 07:28:59;;;;;;;1.90;1.43;;;;;;;;;;5040944;28;20492;-47
2024/01/02 07:31:31;;;;;;;3.77;1.70;;;;;;;;;;5042807;28;20614;-47
2024/01/02 07:33:57;;;;;;;1.60;1.27;;;;;;;;;;5040554;28;20279;-47
2024/01/02 07:36:23;;;;;;;1.53;1.33;;;;;;;;;;5042401;28;20759;-47
2024/01/02 07:38:49;;;;;;;1.53;1.27;;;;;;;;;;5040670;28;20200;-47
2024/01/02 07:41:15;;;;;;;2.27;1.60;;;;;;;;;;5043931;28;20287;-51
2024/01/02 07:43:41;;;;;;;2.30;1.37;;;;;;;;;;5042020;28;20511;-47
2024/01/02 07:46:07;;;;;;;1.67;1.30;;;;;;;;;;5040078;28;20706;-47
2024/01/02 07:48:34;;;;;;;2.80;1.70;;;;;;;;;;5043895;28;20204;-47
2024/01/02 07:51:00;;;;;;;2.10;1.50;;;;;;;;;;5042170;28;20701;-47
2024/01/02 07:53:26;;;;;;;1.73;1.63;;;;;;;;;;5042030;28;20430;-47
2024/01/02 07:55:52;;;;;;;1.93;1.77;;;;;;;;;;5040367;28;20593;-47
2024/01/02 07:58:18;;;;;;;2.27;1.30;;;;;;;;;;5041668;28;20201;-47
2024/01/02 08:00:44;;;;;;;1.67;1.40;;;;;;;;;;5043753;28;20431;-47
2024/01/02 08:03:10;;;;;;;1.50;1.40;;;;;;;;;;5042604;28;20572;-47
2024/01/02 08:05:37;;;;;;;1.23;1.10;;;;;;;;;;5040633;28;20496;-47
2024/01/02 08:08:04;;;;;;;1.37;1.20;;;;;;;;;;5040163;28;20583;-48
2024/01/02 08:10:30;;;;;;;1.73;1.40;;;;;;;;;;5041946;28;20254;-47
2024/01/02 08:12:56;;;;;;;0.90;0.90;;;;;;;;;;5039825;28;20427;-47
2024/01/02 08:15:22;;;;;;;1.20;1.10;;;;;;;;;;5041095;28;21006;-47
2024/01/02 08:17:48;;;;;;;1.17;1.00;;;;;;;;;;5043749;28;20224;-47
2024/01/02 08:20:14;;;;;;;1.60;1.00;;;;;;;;;;5041125;28;20210;-46
2024/01/02 08:22:42;;;;;;;1.17;1.03;;;;;;;;;;5044329;28;20439;-46
2024/01/02 08:25:08;;;;;;;1.03;1.03;;;;;;;;;;5042630;28;20238;-47
2024/01/02 08:27:35;;;;;;;1.00;1.00;;;;;;;;;;5042423;28;20465;-47
2024/01/02 08:30:01;;;;;;;1.23;1.00;;;;;;;;;;5041014;28;20441;-47
2024/01/02 08:32:28;;;;;;;1.00;1.00;;;;;;;;;;5039963;28;20438;-47
2024/01/02 08:34:54;;;;;;;0.93;0.93;;;;;;;;;;5041136;28;20270;-46
2024/01/02 08:37:20;;;;;;;0.90;0.90;;;;;;;;;;5042077;28;20515;-46
2024/01/02 08:39:48;;;;;;;3.10;1.00;;;;;;;;;;5043001;28;20200;-47
2024/01/02 08:42:14;;;;;;;1.10;1.00;;;;;;;;;;5041196;28;20690;-47
2024/01/02 08:44:40;;;;;;;1.13;1.10;;;;;;;;;;5040970;28;20507;-46
2024/01/02 08:47:06;;;;;;;0.90;0.90;;;;;;;;;;5041827;28;20240;-47
2024/01/02 08:49:32;;;;;;;1.17;1.07;;;;;;;;;;5043817;28;20207;-46
2024/01/02 08:51:58;;;;;;;2.93;0.93;;;;;;;;;;5044276;28;20430;-46
2024/01/02 08:54:24;;;;;;;1.37;1.27;;;;;;;;;;5043630;28;20200;-46
2024/01/02 08:56:51;;;;;;;1.00;1.00;;;;;;;;;;5038734;28;20287;-46
2024/01/02 08:59:17;;;;;;;0.97;0.97;;;;;;;;;;5040353;28;20257;-46
2024/01/02 09:01:49;;;;;;;2.77;1.20;;;;;;;;;;5042675;28;20945;-46
2024/01/02 09:04:15;;;;;;;0.70;0.70;;;;;;;;;;5039040;28;20665;-47
2024/01/02 09:06:41;;;;;;;0.93;0.93;;;;;;;;;;5042012;28;20423;-46
2024/01/02 09:09:07;;;;;;;1.70;1.20;;;;;;;;;;5038567;28;20279;-46
2024/01/02 09:11:34;;;;;;;1.20;1.10;;;;;;;;;;5038584;28;20224;-46
2024/01/02 09:14:01;;;;;;;1.20;1.10;;;;;;;;;;5040607;28;20441;-46
2024/01/02 09:16:29;;;;;;;1.07;1.07;;;;;;;;;;5038729;28;20542;-45
2024/01/02 09:18:55;;;;;;;1.17;1.13;;;;;;;;;;5040549;28;20958;-46
2024/01/02 09:21:21;;;;;;;0.90;0.90;;;;;;;;;;5038672;28;20426;-45
2024/01/02 09:23:47;;;;;;;1.10;1.00;;;;;;;;;;5039772;28;20216;-45
2024/01/02 09:26:14;;;;;;;1.10;1.00;;;;;;;;;;5041253;28;20901;-46
2024/01/02 09:28:42;;;;;;;1.40;1.10;;;;;;;;;;5042931;28;20203;-47
2024/01/02 09:31:10;;;;;;;1.30;1.20;;;;;;;;;;5039621;28;20444;-46
2024/01/02 09:33:38;;;;;;;2.07;1.23;;;;;;;;;;5039876;28;21507;-47
2024/01/02 09:36:04;;;;;;;1.27;1.20;;;;;;;;;;5041634;28;20455;-47
2024/01/02 09:38:30;;;;;;;1.67;1.20;;;;;;;;;;5037960;28;20442;-46
2024/01/02 09:41:06;;;;;;;1.20;1.20;;;;;;;;;;5041089;28;20437;-46
2024/01/02 09:43:39;;;;;;;1.17;1.17;;;;;;;;;;5057721;28;20455;-46
2024/01/02 09:46:08;;;;;;;1.30;1.20;;;;;;;;;;5057743;28;20967;-47
2024/01/02 09:48:42;;;;;;;1.40;1.30;;;;;;;;;;5039550;28;20813;-47
2024/01/02 09:51:09;;;;;;;1.47;1.37;;;;;;;;;;5039394;28;20451;-47
2024/01/02 09:53:42;;;;;;;1.37;1.30;;;;;;;;;;5058627;28;21369;-46
2024/01/02 09:56:10;;;;;;;1.30;1.20;;;;;;;;;;5048790;28;20888;-46
2024/01/02 09:58:40;;;;;;;1.50;1.40;;;;;;;;;;5059423;28;20434;-46
2024/01/02 10:01:10;;;;;;;1.20;1.20;;;;;;;;;;5059362;28;20436;-46
2024/01/02 10:03:43;;;;;;;1.50;1.40;;;;;;;;;;5057577;28;20453;-46
2024/01/02 10:06:21;;;;;;;1.40;1.30;;;;;;;;;;5058912;28;20855;-47
2024/01/02 10:08:55;;;;;;;1.50;1.40;;;;;;;;;;5060590;28;20468;-47
2024/01/02 10:11:28;;;;;;;1.50;1.40;;;;;;;;;;5060618;28;20446;-47
2024/01/02 10:13:59;;;;;;;1.73;1.50;;;;;;;;;;5057560;28;20457;-49
2024/01/02 10:16:29;;;;;;;1.60;1.50;;;;;;;;;;5062098;28;20491;-47
2024/01/02 10:19:02;;;;;;;1.60;1.30;;;;;;;;;;5057193;28;20434;-47
2024/01/02 10:21:29;;;;;;;1.50;1.40;;;;;;;;;;5058814;28;20446;-48
2024/01/02 10:24:00;;;;;;;1.63;1.53;;;;;;;;;;5059072;28;20487;-47
2024/01/02 10:26:27;;;;;;;2.37;1.70;;;;;;;;;;5059062;28;20227;-47
2024/01/02 10:28:57;;;;;;;1.80;1.70;;;;;;;;;;5057311;28;20425;-47
2024/01/02 10:31:25;;;;;;;1.80;1.70;;;;;;;;;;5060367;28;20449;-47
2024/01/02 10:33:53;;;;;;;1.90;1.80;;;;;;;;;;5057321;28;20797;-47
2024/01/02 10:36:22;;;;;;;2.73;2.10;;;;;;;;;;5060695;28;20524;-48
2024/01/02 10:38:53;;;;;;;2.10;2.00;;;;;;;;;;5057787;28;20507;-48
2024/01/02 10:41:27;;;;;;;2.67;2.27;;;;;;;;;;5060655;28;20579;-48
2024/01/02 10:44:02;;;;;;;2.27;2.07;;;;;;;;;;5060802;28;20345;-48
2024/01/02 10:46:31;;;;;;;2.40;2.20;;;;;;;;;;5060036;28;20246;-48
2024/01/02 10:49:10;;;;;;;2.30;2.10;;;;;;;;;;5058938;28;20599;-47
2024/01/02 10:51:38;;;;;;;2.30;2.10;;;;;;;;;;5058725;28;20822;-47
2024/01/02 10:54:05;;;;;;;1.77;1.67;;;;;;;;;;5058971;28;20463;-49
2024/01/02 10:56:37;;;;;;;1.80;1.70;;;;;;;;;;5059246;28;20433;-49
2024/01/02 10:59:06;;;;;;;1.80;1.70;;;;;;;;;;5058893;28;20433;-48
2024/01/02 11:01:37;;;;;;;3.40;3.10;;;;;;;;;;5058547;28;20715;-48
2024/01/02 11:04:06;;;;;;;2.10;2.00;;;;;;;;;;5058253;28;20222;-49
2024/01/02 11:06:37;;;;;;;2.23;1.80;;;;;;;;;;5055997;28;20274;-49
2024/01/02 11:09:08;;;;;;;1.87;1.77;;;;;;;;;;5058471;28;20264;-48
2024/01/02 11:11:37;;;;;;;2.30;2.10;;;;;;;;;;5058738;28;20211;-48
2024/01/02 11:14:03;;;;;;;2.10;2.00;;;;;;;;;;5058028;28;20192;-48
2024/01/02 11:16:29;;;;;;;2.57;2.30;;;;;;;;;;5034075;28;20286;-48
2024/01/02 11:18:57;;;;;;;2.40;2.20;;;;;;;;;;5054578;28;20666;-48
2024/01/02 11:21:27;;;;;;;2.60;2.40;;;;;;;;;;5058566;28;20334;-48
2024/01/02 11:23:54;;;;;;;2.83;2.53;;;;;;;;;;5058695;28;20249;-48
2024/01/02 11:26:24;;;;;;;3.70;2.43;;;;;;;;;;5058236;28;20645;-48
2024/01/02 11:28:51;;;;;;;2.87;2.67;;;;;;;;;;5059940;28;20544;-49
2024/01/02 11:31:17;;;;;;;2.70;2.50;;;;;;;;;;5058450;28;20196;-49
2024/01/02 11:33:52;;;;;;;2.80;2.60;;;;;;;;;;5061472;28;20553;-49
2024/01/02 11:36:26;;;;;;;3.30;3.00;;;;;;;;;;5063480;28;20249;-49
2024/01/02 11:39:00;;;;;;;3.80;3.50;;;;;;;;;;5054964;28;20192;-48
2024/01/02 11:41:33;;;;;;;4.33;3.80;;;;;;;;;;5056250;28;20198;-49
2024/01/02 11:44:00;;;;;;;4.80;4.30;;;;;;;;;;5062911;28;20211;-48
2024/01/02 11:46:26;;;;;;;4.97;4.47;;;;;;;;;;5047524;28;20232;-48
2024/01/02 11:48:59;;;;;;;5.13;4.60;;;;;;;;;;5031405;28;21033;-48
2024/01/02 11:51:27;;;;;;;5.63;4.80;;;;;;;;;;5032318;28;20843;-48
2024/01/02 11:54:03;;;;;;;4.70;4.30;;;;;;;;;;5062762;28;20204;-48
2024/01/02 11:56:33;;;;;;;5.30;4.67;;;;;;;;;;5074020;28;20199;-48
2024/01/02 11:59:08;;;;;;;5.10;4.60;;;;;;;;;;5073860;28;20208;-47
2024/01/02 12:01:39;;;;;;;5.70;5.20;;;;;;;;;;5073651;28;20709;-47
2024/01/02 12:04:10;;;;;;;6.03;5.33;;;;;;;;;;5074034;28;20617;-48
2024/01/02 12:06:40;;;;;;;5.97;5.37;;;;;;;;;;5074009;28;20255;-47
2024/01/02 12:09:11;;;;;;;6.90;5.53;;;;;;;;;;5073684;28;20199;-48
2024/01/02 12:11:40;;;;;;;6.73;6.07;;;;;;;;;;5073462;28;20207;-52
2024/01/02 12:14:11;;;;;;;7.07;6.03;;;;;;;;;;5073281;28;20232;-48
2024/01/02 12:16:40;;;;;;;7.03;6.33;;;;;;;;;;5073216;28;20235;-48
2024/01/02 12:19:06;;;;;;;8.00;6.47;;;;;;;;;;5073490;28;20204;-48
2024/01/02 12:21:34;;;;;;;8.90;6.67;;;;;;;;;;5073400;28;20299;-48
2024/01/02 12:24:02;;;;;;;6.87;6.00;;;;;;;;;;5073691;28;20199;-48
2024/01/02 12:26:30;;;;;;;8.07;6.47;;;;;;;;;;5073335;28;20318;-49
2024/01/02 12:28:59;;;;;;;8.37;6.60;;;;;;;;;;5072783;28;20231;-48
2024/01/02 12:31:31;;;;;;;8.67;7.87;;;;;;;;;;5060330;28;20213;-48
2024/01/02 12:33:58;;;;;;;8.37;7.57;;;;;;;;;;5069873;28;20681;-49
2024/01/02 12:36:27;;;;;;;8.33;7.53;;;;;;;;;;5072843;28;20199;-48
2024/01/02 12:38:54;;;;;;;9.97;7.00;;;;;;;;;;5072994;28;20204;-49
2024/01/02 12:41:20;;;;;;;9.60;7.23;;;;;;;;;;5070720;28;20684;-48
2024/01/02 12:47:05;;;;;;;10.87;7.30;;;;;;;;;;5047994;28;20217;-49
2024/01/02 12:49:35;;;;;;;8.43;7.53;;;;;;;;;;5073199;28;20286;-50
2024/01/02 12:52:02;;;;;;;7.90;7.10;;;;;;;;;;5073212;28;20294;-50
2024/01/02 12:54:28;;;;;;;8.43;7.53;;;;;;;;;;5073066;28;20290;-50
2024/01/02 12:56:55;;;;;;;8.13;7.33;;;;;;;;;;5072926;28;20299;-50
2024/01/02 12:59:28;;;;;;;7.23;6.10;;;;;;;;;;5072585;28;20581;-50
2024/01/02 13:01:54;;;;;;;7.43;6.60;;;;;;;;;;5072869;28;20196;-50
2024/01/02 13:04:21;;;;;;;9.73;6.87;;;;;;;;;;5072687;28;20257;-50
2024/01/02 13:06:47;;;;;;;10.17;7.67;;;;;;;;;;5072715;28;20633;-50
2024/01/02 13:09:16;;;;;;;6.90;6.20;;;;;;;;;;5072751;28;20195;-50
2024/01/02 13:11:42;;;;;;;6.83;6.13;;;;;;;;;;5072724;28;20646;-50
2024/01/02 13:14:08;;;;;;;9.97;6.70;;;;;;;;;;5072612;28;20389;-50
2024/01/02 13:16:35;;;;;;;9.20;6.20;;;;;;;;;;5072556;28;20215;-49
2024/01/02 13:19:02;;;;;;;9.23;6.57;;;;;;;;;;5072617;28;20196;-50
2024/01/02 13:21:29;;;;;;;9.83;6.60;;;;;;;;;;5072397;28;20639;-50
2024/01/02 13:23:56;;;;;;;9.07;5.77;;;;;;;;;;5072539;28;20207;-50
2024/01/02 13:26:22;;;;;;;8.87;6.60;;;;;;;;;;5072240;28;20255;-50
2024/01/02 13:28:49;;;;;;;7.63;6.77;;;;;;;;;;5072004;28;20203;-50
2024/01/02 13:31:26;;;;;;;12.53;6.00;;;;;;;;;;5072248;28;20629;-50
2024/01/02 13:33:53;;;;;;;9.43;6.30;;;;;;;;;;5072116;28;20187;-50
2024/01/02 13:36:19;;;;;;;7.73;5.73;;;;;;;;;;5071869;28;20774;-50
2024/01/02 13:38:46;;;;;;;7.33;6.63;;;;;;;;;;5068063;28;20655;-50
2024/01/02 13:41:13;;;;;;;10.07;6.33;;;;;;;;;;5071551;28;20210;-50
2024/01/02 13:43:40;;;;;;;6.53;5.83;;;;;;;;;;5071547;28;20253;-49
2024/01/02 13:46:10;;;;;;;9.97;6.73;;;;;;;;;;5071192;28;20735;-50
2024/01/02 13:48:37;;;;;;;7.00;6.30;;;;;;;;;;5071408;28;20694;-50
2024/01/02 13:51:03;;;;;;;8.73;6.87;;;;;;;;;;5071546;28;20203;-48
2024/01/02 13:53:29;;;;;;;9.33;6.47;;;;;;;;;;5071313;28;20196;-49
2024/01/02 13:55:57;;;;;;;7.77;6.80;;;;;;;;;;5070625;28;20202;-48
2024/01/02 13:58:23;;;;;;;13.47;6.83;;;;;;;;;;5071148;28;20297;-48
2024/01/02 14:00:49;;;;;;;9.47;6.97;;;;;;;;;;5071151;28;20242;-49
2024/01/02 14:03:17;;;;;;;10.93;7.17;;;;;;;;;;5069586;28;20196;-48
2024/01/02 14:05:51;;;;;;;10.00;7.33;;;;;;;;;;5061204;28;20280;-48
2024/01/02 14:08:19;;;;;;;8.43;7.23;;;;;;;;;;5062368;28;20198;-48
2024/01/02 14:10:45;;;;;;;13.20;7.23;;;;;;;;;;5066049;28;20669;-50
2024/01/02 14:13:27;;;;;;;10.20;8.10;;;;;;;;;;5061307;28;20199;-48
2024/01/02 14:15:55;;;;;;;13.83;8.47;;;;;;;;;;5062992;28;20434;-48
2024/01/02 14:18:23;;;;;;;12.07;8.23;;;;;;;;;;5059278;28;20333;-48
2024/01/02 14:20:52;;;;;;;11.17;7.80;;;;;;;;;;5059443;28;20199;-48
2024/01/02 14:23:26;;;;;;;9.73;7.13;;;;;;;;;;5058449;28;20608;-49
2024/01/02 14:25:59;;;;;;;11.27;7.13;;;;;;;;;;5060659;28;20311;-49
2024/01/02 14:28:27;;;;;;;10.93;6.57;;;;;;;;;;5060639;28;20268;-48
2024/01/02 14:30:58;;;;;;;8.33;6.07;;;;;;;;;;5060824;28;20636;-49
2024/01/02 14:33:45;;;;;;;10.67;5.53;;;;;;;;;;5062302;28;20234;-48
2024/01/02 14:36:18;;;;;;;7.27;4.40;;;;;;;;;;5062295;28;20561;-48
2024/01/02 14:38:52;;;;;;;6.90;4.00;;;;;;;;;;5060676;28;20226;-48
2024/01/02 14:41:22;;;;;;;8.00;4.93;;;;;;;;;;5060535;28;20203;-49
2024/01/02 14:43:57;;;;;;;5.37;3.87;;;;;;;;;;5058919;28;20229;-48